Time;durP1;ratioP1;P1;durP2;ratioP2;P2;SDS_P1;SDS_P2;PMS_P1;PMS_P2;Temp;Humidity;BMP_temperature;BMP_pressure;BME280_temperature;BME280_humidity;BME280_pressure;Samples;Min_cycle;Max_cycle;Signal;HPM_P1;HPM_P2
2020/12/03 00:01:12;;;;;;;65.00;26.58;;;5.50;99.90;;;;;;5112784;28;20122;-46
2020/12/03 00:03:50;;;;;;;72.07;28.83;;;5.40;99.90;;;;;;5112398;28;20028;-48
2020/12/03 00:06:29;;;;;;;61.67;25.63;;;5.30;99.90;;;;;;5112727;28;20540;-46
2020/12/03 00:09:06;;;;;;;67.45;25.88;;;5.20;99.90;;;;;;5109687;28;20038;-45
2020/12/03 00:11:36;;;;;;;67.13;28.55;;;5.00;99.90;;;;;;5092627;28;20423;-46
2020/12/03 00:14:01;;;;;;;67.43;26.58;;;5.00;99.90;;;;;;5103661;28;20114;-46
2020/12/03 00:16:30;;;;;;;76.22;29.52;;;4.90;99.90;;;;;;5112199;28;20655;-47
2020/12/03 00:18:56;;;;;;;73.00;30.95;;;4.90;99.90;;;;;;5111973;28;20473;-46
2020/12/03 00:21:47;;;;;;;58.10;26.80;;;4.90;99.90;;;;;;5112147;28;20036;-47
2020/12/03 00:24:16;;;;;;;68.50;29.63;;;4.80;99.90;;;;;;5108073;28;20094;-47
2020/12/03 00:26:42;;;;;;;60.80;26.48;;;4.80;99.90;;;;;;5108917;28;20027;-47
2020/12/03 00:29:08;;;;;;;76.53;29.50;;;4.70;99.90;;;;;;5111968;28;20027;-46
2020/12/03 00:31:34;;;;;;;70.13;29.10;;;4.60;99.90;;;;;;5111446;28;20031;-47
2020/12/03 00:34:04;;;;;;;76.20;27.92;;;4.70;99.90;;;;;;5111980;28;20020;-46
2020/12/03 00:36:29;;;;;;;93.43;32.00;;;4.70;99.90;;;;;;5111601;28;20528;-46
2020/12/03 00:38:56;;;;;;;88.47;33.13;;;4.70;99.90;;;;;;5111373;27;20282;-49
2020/12/03 00:41:21;;;;;;;94.57;34.35;;;4.90;99.90;;;;;;5091714;28;20051;-48
2020/12/03 00:43:48;;;;;;;78.78;31.13;;;5.00;99.90;;;;;;5101004;28;20028;-46
2020/12/03 00:46:14;;;;;;;80.95;31.80;;;5.10;99.90;;;;;;5110686;28;20028;-47
2020/12/03 00:48:40;;;;;;;77.93;31.98;;;5.10;99.90;;;;;;5110906;28;20032;-46
2020/12/03 00:51:05;;;;;;;90.78;33.10;;;5.30;99.90;;;;;;5111528;28;20023;-49
2020/12/03 00:53:32;;;;;;;86.63;32.28;;;5.60;99.90;;;;;;5111211;28;20068;-46
2020/12/03 00:55:58;;;;;;;79.80;30.65;;;5.70;99.90;;;;;;5094714;27;20039;-48
2020/12/03 00:58:24;;;;;;;70.65;28.77;;;5.80;99.90;;;;;;5101088;28;20031;-46
2020/12/03 01:00:49;;;;;;;75.38;29.00;;;5.90;99.90;;;;;;5109976;28;20036;-46
2020/12/03 01:03:15;;;;;;;64.00;26.83;;;5.90;99.90;;;;;;5111146;28;20205;-48
2020/12/03 01:05:41;;;;;;;67.03;27.60;;;5.90;99.90;;;;;;5110680;28;20031;-47
2020/12/03 01:08:06;;;;;;;68.95;27.88;;;5.80;99.90;;;;;;5111094;28;20409;-47
2020/12/03 01:10:34;;;;;;;49.25;19.27;;;5.80;99.90;;;;;;5099302;28;20031;-49
2020/12/03 01:13:01;;;;;;;45.95;17.23;;;5.80;99.90;;;;;;5093672;28;20035;-46
2020/12/03 01:15:28;;;;;;;38.65;14.15;;;5.70;99.90;;;;;;5109519;28;20040;-46
2020/12/03 01:17:56;;;;;;;39.25;13.63;;;5.70;99.90;;;;;;5111024;28;20040;-47
2020/12/03 01:20:25;;;;;;;39.65;11.80;;;5.70;99.90;;;;;;5111431;28;20043;-47
2020/12/03 01:22:51;;;;;;;37.53;10.75;;;5.60;99.90;;;;;;5111120;28;20110;-46
2020/12/03 01:25:21;;;;;;;32.22;11.20;;;5.60;99.90;;;;;;5101570;28;20064;-46
2020/12/03 01:27:47;;;;;;;33.53;9.75;;;5.70;99.90;;;;;;5095833;28;20047;-46
2020/12/03 01:30:14;;;;;;;25.85;10.13;;;5.60;99.90;;;;;;5111207;28;20042;-47
2020/12/03 01:32:40;;;;;;;27.88;9.70;;;5.60;99.90;;;;;;5110956;28;20088;-47
2020/12/03 01:35:07;;;;;;;35.78;10.00;;;5.50;99.90;;;;;;5110764;28;20044;-46
2020/12/03 01:37:34;;;;;;;26.65;9.70;;;5.40;99.90;;;;;;5111064;28;20401;-46
2020/12/03 01:39:59;;;;;;;29.63;9.43;;;5.40;99.90;;;;;;5105694;27;20051;-46
2020/12/03 01:42:25;;;;;;;34.85;10.38;;;5.30;99.90;;;;;;5090308;28;20036;-48
2020/12/03 01:44:53;;;;;;;30.40;9.88;;;5.20;99.90;;;;;;5108426;28;20115;-47
2020/12/03 01:47:51;;;;;;;25.92;9.90;;;5.00;99.90;;;;;;5110354;28;20043;-46
2020/12/03 01:50:17;;;;;;;29.83;8.80;;;4.90;99.90;;;;;;5065933;28;20055;-46
2020/12/03 01:52:43;;;;;;;31.00;8.85;;;4.90;99.90;;;;;;5090300;28;20031;-48
2020/12/03 01:55:08;;;;;;;31.33;8.80;;;4.90;99.90;;;;;;5105499;27;20031;-46
2020/12/03 01:58:02;;;;;;;33.05;8.38;;;4.90;99.90;;;;;;5092129;28;20035;-46
2020/12/03 02:00:29;;;;;;;33.33;8.65;;;5.00;99.90;;;;;;5109512;28;20044;-47
2020/12/03 02:02:55;;;;;;;31.60;8.10;;;5.10;99.90;;;;;;5108841;28;20083;-48
2020/12/03 02:05:27;;;;;;;28.35;7.28;;;5.20;99.90;;;;;;5108737;28;20438;-47
2020/12/03 02:07:53;;;;;;;22.83;7.50;;;5.40;99.90;;;;;;5110102;28;20622;-46
2020/12/03 02:10:22;;;;;;;27.83;7.10;;;5.50;99.90;;;;;;5104656;28;20257;-46
2020/12/03 02:12:48;;;;;;;26.48;7.68;;;5.60;99.90;;;;;;5090274;28;20027;-46
2020/12/03 02:15:15;;;;;;;29.35;7.82;;;5.70;99.90;;;;;;5109803;28;20403;-46
2020/12/03 02:17:41;;;;;;;33.22;7.88;;;5.80;99.90;;;;;;5109469;28;20532;-46
2020/12/03 02:20:14;;;;;;;32.78;7.80;;;5.90;99.90;;;;;;5109745;28;20043;-45
2020/12/03 02:22:40;;;;;;;29.63;8.10;;;5.90;99.90;;;;;;5109758;28;20031;-45
2020/12/03 02:25:08;;;;;;;27.30;7.20;;;6.00;99.90;;;;;;5107175;28;20674;-46
2020/12/03 02:27:35;;;;;;;27.38;7.40;;;5.90;99.90;;;;;;5092779;28;20047;-46
2020/12/03 02:30:03;;;;;;;22.48;6.60;;;5.90;99.90;;;;;;5109891;28;20481;-45
2020/12/03 02:32:29;;;;;;;27.05;7.90;;;6.00;99.90;;;;;;5091764;28;20071;-45
2020/12/03 02:34:55;;;;;;;23.05;7.03;;;5.90;99.90;;;;;;5089925;28;20298;-46
2020/12/03 02:37:20;;;;;;;26.58;7.25;;;6.00;99.90;;;;;;5090766;28;20056;-46
2020/12/03 02:39:46;;;;;;;29.00;7.68;;;5.90;99.90;;;;;;5110827;28;20047;-45
2020/12/03 02:42:13;;;;;;;29.05;8.07;;;6.00;99.90;;;;;;5090899;27;20036;-47
2020/12/03 02:44:45;;;;;;;32.35;9.07;;;6.00;99.90;;;;;;5089965;28;20127;-47
2020/12/03 02:47:17;;;;;;;23.67;8.65;;;6.00;99.90;;;;;;5106891;28;20416;-47
2020/12/03 02:49:42;;;;;;;38.67;8.93;;;5.90;99.90;;;;;;5110704;28;20132;-46
2020/12/03 02:52:17;;;;;;;41.78;10.05;;;5.90;99.90;;;;;;5110508;28;20118;-47
2020/12/03 02:54:43;;;;;;;36.03;9.13;;;5.90;99.90;;;;;;5108967;28;20081;-46
2020/12/03 02:57:09;;;;;;;33.22;8.85;;;5.90;99.90;;;;;;5110622;28;20584;-47
2020/12/03 02:59:36;;;;;;;38.55;9.23;;;5.90;99.90;;;;;;5110407;28;20540;-46
2020/12/03 03:02:01;;;;;;;35.80;9.52;;;5.80;99.90;;;;;;5106554;28;20110;-46
2020/12/03 03:04:27;;;;;;;27.55;8.00;;;5.80;99.90;;;;;;5110803;28;20114;-47
2020/12/03 03:06:53;;;;;;;26.02;8.57;;;5.80;99.90;;;;;;5110363;28;20038;-46
2020/12/03 03:09:20;;;;;;;38.38;9.95;;;5.80;99.90;;;;;;5111089;28;20040;-46
2020/12/03 03:11:46;;;;;;;32.53;8.25;;;5.80;99.90;;;;;;5110401;28;20130;-46
2020/12/03 03:14:11;;;;;;;31.38;7.70;;;5.80;99.90;;;;;;5110816;28;20114;-46
2020/12/03 03:16:37;;;;;;;39.58;8.30;;;5.80;99.90;;;;;;5110448;28;20032;-46
2020/12/03 03:19:03;;;;;;;40.92;8.63;;;5.80;99.90;;;;;;5110613;28;20489;-46
2020/12/03 03:21:30;;;;;;;30.75;8.25;;;5.80;99.90;;;;;;5110709;28;20620;-46
2020/12/03 03:23:56;;;;;;;25.48;8.32;;;5.80;99.90;;;;;;5110411;28;20435;-45
2020/12/03 03:26:22;;;;;;;34.78;7.80;;;5.70;99.90;;;;;;5110522;28;20100;-46
2020/12/03 03:28:48;;;;;;;30.77;8.13;;;5.70;99.90;;;;;;5113776;28;20020;-47
2020/12/03 03:31:15;;;;;;;32.45;8.23;;;5.60;99.90;;;;;;5114490;28;20086;-45
2020/12/03 03:33:41;;;;;;;27.80;8.60;;;5.60;99.90;;;;;;5114479;28;20115;-48
2020/12/03 03:36:06;;;;;;;32.33;8.82;;;5.50;99.90;;;;;;5114168;28;20525;-47
2020/12/03 03:38:32;;;;;;;44.45;8.70;;;5.50;99.90;;;;;;5114189;28;20043;-46
2020/12/03 03:40:58;;;;;;;34.55;7.72;;;5.50;99.90;;;;;;5109230;28;20075;-45
2020/12/03 03:43:23;;;;;;;40.55;8.60;;;5.50;99.90;;;;;;5114461;28;20039;-45
2020/12/03 03:45:49;;;;;;;31.80;7.60;;;5.60;99.90;;;;;;5114377;28;20027;-46
2020/12/03 03:48:15;;;;;;;32.63;7.60;;;5.60;99.90;;;;;;5113535;28;20032;-46
2020/12/03 03:50:40;;;;;;;34.33;7.07;;;5.60;99.90;;;;;;5114159;28;20027;-46
2020/12/03 03:53:06;;;;;;;32.60;8.40;;;5.60;99.90;;;;;;5114040;28;20035;-46
2020/12/03 03:55:32;;;;;;;29.13;6.95;;;5.60;99.90;;;;;;5114281;27;20039;-47
2020/12/03 03:57:57;;;;;;;25.63;7.68;;;5.60;99.90;;;;;;5114019;28;20032;-46
2020/12/03 04:00:23;;;;;;;37.03;8.18;;;5.70;99.90;;;;;;5113635;28;20068;-45
2020/12/03 04:02:49;;;;;;;40.63;9.02;;;5.70;99.90;;;;;;5113829;28;20030;-49
2020/12/03 04:05:16;;;;;;;26.63;7.93;;;5.70;99.90;;;;;;5095060;28;20032;-47
2020/12/03 04:07:44;;;;;;;31.77;7.50;;;5.70;99.90;;;;;;5113927;28;20039;-46
2020/12/03 04:10:10;;;;;;;24.17;7.50;;;5.70;99.90;;;;;;5113848;28;20027;-45
2020/12/03 04:12:38;;;;;;;25.00;6.55;;;5.60;99.90;;;;;;5113828;28;20055;-46
2020/12/03 04:15:03;;;;;;;31.15;7.63;;;5.60;99.90;;;;;;5113592;28;20472;-46
2020/12/03 04:17:29;;;;;;;27.95;7.55;;;5.50;99.90;;;;;;5113442;28;20133;-46
2020/12/03 04:19:56;;;;;;;31.92;7.22;;;5.50;99.90;;;;;;5112209;28;20048;-47
2020/12/03 04:22:23;;;;;;;32.03;7.15;;;5.40;99.90;;;;;;5114145;28;20488;-45
2020/12/03 04:24:49;;;;;;;30.60;6.97;;;5.40;99.90;;;;;;5112776;28;20034;-46
2020/12/03 04:27:15;;;;;;;28.70;6.53;;;5.40;99.90;;;;;;5113602;28;20027;-45
2020/12/03 04:29:40;;;;;;;38.15;7.28;;;5.40;99.90;;;;;;5113542;28;20027;-47
2020/12/03 04:32:06;;;;;;;28.15;7.28;;;5.40;99.90;;;;;;5113240;28;20605;-46
2020/12/03 04:34:32;;;;;;;31.30;6.68;;;5.30;99.90;;;;;;5113299;28;20043;-46
2020/12/03 04:36:57;;;;;;;41.63;8.07;;;5.30;99.90;;;;;;5113078;28;20054;-46
2020/12/03 04:39:23;;;;;;;31.75;6.70;;;5.30;99.90;;;;;;5112121;28;20033;-46
2020/12/03 04:41:49;;;;;;;43.65;8.32;;;5.30;99.90;;;;;;5112937;28;20042;-47
2020/12/03 04:44:36;;;;;;;26.65;6.70;;;5.30;99.90;;;;;;5113423;28;20027;-46
2020/12/03 04:47:21;;;;;;;36.33;8.43;;;5.30;99.90;;;;;;5112894;28;20024;-45
2020/12/03 04:50:11;;;;;;;26.75;7.60;;;5.30;99.90;;;;;;5112681;28;20032;-46
2020/12/03 04:53:21;;;;;;;29.20;7.80;;;5.20;99.90;;;;;;5113282;28;20105;-45
2020/12/03 04:56:01;;;;;;;29.20;7.72;;;5.20;99.90;;;;;;5113108;28;20078;-46
2020/12/03 04:58:39;;;;;;;26.98;7.10;;;5.20;99.90;;;;;;5112858;28;20015;-46
2020/12/03 05:01:43;;;;;;;32.38;7.30;;;5.20;99.90;;;;;;5112859;28;20036;-46
2020/12/03 05:04:13;;;;;;;22.85;7.38;;;5.10;99.90;;;;;;5111341;28;20111;-47
2020/12/03 05:07:01;;;;;;;32.05;8.25;;;5.20;99.90;;;;;;5112691;28;20354;-46
2020/12/03 05:09:30;;;;;;;28.63;7.18;;;5.10;99.90;;;;;;5112693;28;20373;-46
2020/12/03 05:12:04;;;;;;;28.45;7.35;;;5.20;99.90;;;;;;5111230;28;20061;-44
2020/12/03 05:14:34;;;;;;;33.03;7.68;;;5.20;99.90;;;;;;5112665;27;20038;-46
2020/12/03 05:17:16;;;;;;;23.17;6.15;;;5.20;99.90;;;;;;5112001;28;20027;-45
2020/12/03 05:19:55;;;;;;;26.95;6.80;;;5.20;99.90;;;;;;5112493;28;20828;-45
2020/12/03 05:22:22;;;;;;;25.73;7.18;;;5.20;99.90;;;;;;5112351;28;20023;-46
2020/12/03 05:24:47;;;;;;;24.35;7.13;;;5.30;99.90;;;;;;5112149;28;20035;-45
2020/12/03 05:27:30;;;;;;;22.15;5.97;;;5.50;99.90;;;;;;5112489;28;20035;-46
2020/12/03 05:29:59;;;;;;;26.58;5.55;;;5.50;99.90;;;;;;5112120;28;20027;-45
2020/12/03 05:32:24;;;;;;;28.33;5.43;;;5.50;99.90;;;;;;5111965;28;20066;-46
2020/12/03 05:34:51;;;;;;;24.77;6.13;;;5.50;99.90;;;;;;5111926;28;20066;-47
2020/12/03 05:37:17;;;;;;;21.02;5.68;;;5.40;99.90;;;;;;5111580;28;20055;-48
2020/12/03 05:39:51;;;;;;;32.05;6.35;;;5.40;99.90;;;;;;5111533;28;20051;-47
2020/12/03 05:42:24;;;;;;;26.25;6.90;;;5.30;99.90;;;;;;5111679;28;20035;-47
2020/12/03 05:44:59;;;;;;;28.25;7.55;;;5.30;99.90;;;;;;5110756;28;20028;-45
2020/12/03 05:47:27;;;;;;;34.20;6.70;;;5.20;99.90;;;;;;5104507;27;20043;-46
2020/12/03 05:49:56;;;;;;;22.58;6.55;;;5.20;99.90;;;;;;5090564;28;20035;-46
2020/12/03 05:52:24;;;;;;;25.27;6.13;;;5.20;99.90;;;;;;5091138;28;20541;-46
2020/12/03 05:55:05;;;;;;;28.40;6.60;;;5.20;99.90;;;;;;5090632;28;20028;-45
2020/12/03 05:57:36;;;;;;;23.30;7.15;;;5.30;99.90;;;;;;5096503;28;20663;-47
2020/12/03 06:00:12;;;;;;;25.88;6.82;;;5.30;99.90;;;;;;5092334;28;20046;-46
2020/12/03 06:03:00;;;;;;;33.15;7.55;;;5.20;99.90;;;;;;5095890;27;20550;-46
2020/12/03 06:05:46;;;;;;;29.23;7.18;;;5.20;99.90;;;;;;5090094;27;20042;-45
2020/12/03 06:08:40;;;;;;;27.52;7.05;;;5.20;99.90;;;;;;5100932;28;20020;-46
2020/12/03 06:11:24;;;;;;;30.50;7.60;;;5.30;99.90;;;;;;5109664;28;20036;-46
2020/12/03 06:14:16;;;;;;;23.40;7.35;;;5.30;99.90;;;;;;5108627;28;20561;-45
2020/12/03 06:16:56;;;;;;;30.23;7.60;;;5.30;99.90;;;;;;5109810;28;20031;-45
2020/12/03 06:19:32;;;;;;;30.08;7.57;;;5.30;99.90;;;;;;5090915;27;20120;-45
2020/12/03 06:22:14;;;;;;;23.63;6.78;;;5.30;99.90;;;;;;5091280;28;20110;-46
2020/12/03 06:24:59;;;;;;;25.17;6.43;;;5.40;99.90;;;;;;5109491;28;20119;-47
2020/12/03 06:27:41;;;;;;;23.50;7.20;;;5.50;99.90;;;;;;5107301;27;20035;-45
2020/12/03 06:30:28;;;;;;;25.20;7.40;;;5.50;99.90;;;;;;5107618;28;20122;-47
2020/12/03 06:33:31;;;;;;;30.35;8.35;;;5.50;99.90;;;;;;5103739;27;20036;-45
2020/12/03 06:36:06;;;;;;;31.75;8.73;;;5.50;99.90;;;;;;5090654;28;20044;-46
2020/12/03 06:38:45;;;;;;;30.88;8.55;;;5.50;99.90;;;;;;5102797;28;20436;-46
2020/12/03 06:41:23;;;;;;;28.63;8.52;;;5.50;99.90;;;;;;5109503;28;20043;-46
2020/12/03 06:44:12;;;;;;;28.75;8.70;;;5.50;99.90;;;;;;5103768;28;20039;-46
2020/12/03 06:46:57;;;;;;;27.70;7.95;;;5.50;99.90;;;;;;5088763;28;20031;-46
2020/12/03 06:49:41;;;;;;;27.50;7.38;;;5.60;99.90;;;;;;5089061;27;20488;-47
2020/12/03 06:52:43;;;;;;;27.52;7.47;;;5.60;99.90;;;;;;5091112;28;20685;-47
2020/12/03 06:55:36;;;;;;;35.20;8.85;;;5.60;99.90;;;;;;5109225;28;20028;-46
2020/12/03 06:58:07;;;;;;;27.92;7.35;;;5.70;99.90;;;;;;5102226;28;20024;-46
2020/12/03 07:00:45;;;;;;;26.17;9.43;;;5.70;99.90;;;;;;5097110;28;20047;-44
2020/12/03 07:03:45;;;;;;;49.70;16.25;;;5.90;99.90;;;;;;5098840;28;20036;-45
2020/12/03 07:06:55;;;;;;;14.35;2.67;;;5.90;99.90;;;;;;5096150;28;20820;-46
2020/12/03 07:10:05;;;;;;;14.40;2.17;;;6.10;99.90;;;;;;5098696;28;20373;-46
2020/12/03 07:12:53;;;;;;;12.15;2.70;;;6.20;99.90;;;;;;5114304;28;20039;-46
2020/12/03 07:15:38;;;;;;;14.95;2.88;;;6.30;99.90;;;;;;5102023;28;20040;-46
2020/12/03 07:18:28;;;;;;;16.80;2.53;;;6.30;99.90;;;;;;5099918;28;20035;-49
2020/12/03 07:21:11;;;;;;;27.00;9.27;;;6.30;99.90;;;;;;5089529;28;20530;-48
2020/12/03 07:23:40;;;;;;;25.48;6.78;;;6.30;99.90;;;;;;5102345;28;20663;-46
2020/12/03 07:26:39;;;;;;;15.35;3.20;;;6.40;99.90;;;;;;5106920;28;20080;-47
2020/12/03 07:29:39;;;;;;;14.50;2.00;;;6.40;99.90;;;;;;5080356;28;20040;-47
2020/12/03 07:32:18;;;;;;;12.57;1.83;;;6.50;99.90;;;;;;5104735;28;20562;-47
2020/12/03 07:34:51;;;;;;;12.68;1.60;;;6.60;99.90;;;;;;5099693;28;20019;-46
2020/12/03 07:37:36;;;;;;;;;;;6.70;99.90;;;;;;5100272;28;20055;-48
2020/12/03 07:40:03;;;;;;;14.90;2.30;;;6.80;99.90;;;;;;5104012;28;20857;-47
2020/12/03 07:42:29;;;;;;;24.80;4.97;;;6.90;99.90;;;;;;5102017;28;20798;-46
2020/12/03 07:44:54;;;;;;;20.85;3.45;;;7.00;99.90;;;;;;5104980;28;20488;-47
2020/12/03 07:47:20;;;;;;;10.63;1.92;;;7.00;99.90;;;;;;5099375;28;20028;-47
2020/12/03 07:49:48;;;;;;;12.63;1.77;;;7.20;99.90;;;;;;5094803;28;20023;-49
2020/12/03 07:52:23;;;;;;;6.95;1.90;;;7.20;99.90;;;;;;5105493;28;20058;-46
2020/12/03 07:54:49;;;;;;;11.82;1.30;;;7.20;99.90;;;;;;5107031;28;20376;-48
2020/12/03 07:57:33;;;;;;;6.63;1.33;;;7.20;99.90;;;;;;5108054;28;20027;-46
2020/12/03 08:00:19;;;;;;;7.72;1.25;;;7.30;99.90;;;;;;5106313;28;20190;-47
2020/12/03 08:02:58;;;;;;;4.40;1.27;;;7.30;99.90;;;;;;5100016;28;20039;-47
2020/12/03 08:05:39;;;;;;;8.68;1.30;;;7.30;99.90;;;;;;5093721;27;20079;-46
2020/12/03 08:08:26;;;;;;;12.35;1.20;;;7.30;99.90;;;;;;5108014;28;20129;-47
2020/12/03 08:10:53;;;;;;;9.10;1.70;;;7.30;99.90;;;;;;5106902;28;20039;-47
2020/12/03 08:13:36;;;;;;;9.35;1.42;;;7.20;99.90;;;;;;5107575;28;20055;-45
2020/12/03 08:16:11;;;;;;;14.93;1.63;;;7.20;99.90;;;;;;5112107;28;20027;-46
2020/12/03 08:18:46;;;;;;;11.73;1.52;;;7.20;99.90;;;;;;5104634;28;20929;-46
2020/12/03 08:21:15;;;;;;;14.77;1.95;;;7.20;99.90;;;;;;5108676;27;20042;-47
2020/12/03 08:23:52;;;;;;;10.02;1.52;;;7.20;99.90;;;;;;5113533;27;20269;-46
2020/12/03 08:26:25;;;;;;;10.70;1.05;;;7.20;99.90;;;;;;5109288;27;20466;-45
2020/12/03 08:28:51;;;;;;;6.65;0.88;;;7.20;99.90;;;;;;5105936;27;20050;-46
2020/12/03 08:31:17;;;;;;;5.55;1.05;;;7.30;99.90;;;;;;5092398;28;20036;-45
2020/12/03 08:33:43;;;;;;;9.15;1.10;;;7.20;99.90;;;;;;5096455;27;20093;-46
2020/12/03 08:36:11;;;;;;;5.72;1.00;;;7.30;99.90;;;;;;5094688;28;20391;-46
2020/12/03 08:38:39;;;;;;;7.38;1.30;;;7.30;99.90;;;;;;5090221;27;20034;-46
2020/12/03 08:41:12;;;;;;;10.07;1.55;;;7.30;99.90;;;;;;5093245;28;20024;-46
2020/12/03 08:43:45;;;;;;;6.00;1.00;;;7.40;99.90;;;;;;5092959;27;20032;-47
2020/12/03 08:46:18;;;;;;;6.82;1.30;;;7.40;99.90;;;;;;5103624;28;20164;-47
2020/12/03 08:48:47;;;;;;;12.35;1.40;;;7.40;99.90;;;;;;5103547;28;20036;-45
2020/12/03 08:51:14;;;;;;;9.55;2.17;;;7.40;99.90;;;;;;5089945;27;20044;-46
2020/12/03 08:53:48;;;;;;;25.55;2.70;;;7.50;99.90;;;;;;5103750;28;20656;-46
2020/12/03 08:56:17;;;;;;;10.13;1.58;;;7.50;99.90;;;;;;5093850;27;20055;-46
2020/12/03 08:58:59;;;;;;;6.18;1.00;;;7.50;99.90;;;;;;5105753;28;20381;-45
2020/12/03 09:01:30;;;;;;;12.52;1.52;;;7.60;99.90;;;;;;5088855;27;20064;-47
2020/12/03 09:03:58;;;;;;;13.82;1.40;;;7.60;99.90;;;;;;5097657;28;20658;-45
2020/12/03 09:06:29;;;;;;;13.93;1.55;;;7.60;99.90;;;;;;5089872;27;20071;-48
2020/12/03 09:08:55;;;;;;;17.27;1.70;;;7.60;99.90;;;;;;5106273;28;20024;-48
2020/12/03 09:11:23;;;;;;;11.25;1.65;;;7.60;99.90;;;;;;5111243;28;20046;-47
2020/12/03 09:13:53;;;;;;;16.92;2.00;;;7.50;99.90;;;;;;5110665;28;20028;-48
2020/12/03 09:16:22;;;;;;;12.23;1.83;;;7.60;99.90;;;;;;5111020;28;20031;-46
2020/12/03 09:18:48;;;;;;;15.02;1.60;;;7.60;99.90;;;;;;5109789;27;20034;-48
2020/12/03 09:21:14;;;;;;;12.57;1.88;;;7.60;99.90;;;;;;5088539;28;20032;-47
2020/12/03 09:23:46;;;;;;;9.88;1.60;;;7.70;99.90;;;;;;5104775;28;20028;-48
2020/12/03 09:26:24;;;;;;;18.83;2.88;;;7.70;99.90;;;;;;5109598;28;20057;-47
2020/12/03 09:28:50;;;;;;;12.55;2.00;;;7.80;99.90;;;;;;5109793;28;20108;-50
2020/12/03 09:31:17;;;;;;;13.70;1.80;;;7.80;99.90;;;;;;5110858;28;20412;-47
2020/12/03 09:33:50;;;;;;;13.25;1.52;;;7.80;99.90;;;;;;5110485;28;20038;-48
2020/12/03 09:36:15;;;;;;;18.40;1.67;;;7.80;99.90;;;;;;5090764;28;20032;-47
2020/12/03 09:38:43;;;;;;;17.38;2.92;;;7.90;99.90;;;;;;5105478;28;20637;-48
2020/12/03 09:41:10;;;;;;;7.07;1.10;;;7.90;99.90;;;;;;5105552;28;20555;-51
2020/12/03 09:43:39;;;;;;;11.60;1.20;;;7.90;99.90;;;;;;5101232;28;20062;-50
2020/12/03 09:46:11;;;;;;;15.18;1.67;;;7.90;99.90;;;;;;5107828;28;20044;-52
2020/12/03 09:48:39;;;;;;;13.48;1.83;;;7.90;99.90;;;;;;5110113;28;20103;-51
2020/12/03 09:51:05;;;;;;;12.68;1.42;;;8.00;99.90;;;;;;5091470;28;20148;-50
2020/12/03 09:53:33;;;;;;;14.90;1.58;;;8.00;99.90;;;;;;5102690;28;20036;-49
2020/12/03 09:56:03;;;;;;;23.00;2.40;;;8.10;99.90;;;;;;5109286;28;20036;-50
2020/12/03 09:58:29;;;;;;;23.45;2.15;;;8.10;99.90;;;;;;5109072;28;20117;-48
2020/12/03 10:01:02;;;;;;;5.43;1.40;;;8.20;99.90;;;;;;5108968;28;20191;-54
2020/12/03 10:03:46;;;;;;;;;;;8.20;99.90;;;;;;5108175;28;20087;-51
2020/12/03 10:06:26;;;;;;;9.80;1.50;;;8.20;99.90;;;;;;5090071;28;20412;-49
2020/12/03 10:09:03;;;;;;;11.18;1.50;;;8.20;99.90;;;;;;5105821;28;20039;-50
2020/12/03 10:11:53;;;;;;;11.15;1.67;;;8.20;99.90;;;;;;5110490;28;20639;-52
2020/12/03 10:14:25;;;;;;;11.63;2.53;;;8.20;99.90;;;;;;5109886;28;20047;-54
2020/12/03 10:17:01;;;;;;;12.88;1.55;;;8.20;99.90;;;;;;5110232;28;20035;-55
2020/12/03 10:19:29;;;;;;;7.78;1.15;;;8.20;99.90;;;;;;5107507;28;20604;-55
2020/12/03 10:21:59;;;;;;;15.77;2.40;;;8.20;99.90;;;;;;5089545;28;20035;-55
2020/12/03 10:24:35;;;;;;;14.75;1.90;;;8.20;99.90;;;;;;5089593;28;20463;-56
2020/12/03 10:27:11;;;;;;;11.10;1.33;;;8.10;99.90;;;;;;5090168;28;20043;-60
2020/12/03 10:29:47;;;;;;;6.07;1.83;;;8.10;99.90;;;;;;5108357;28;20262;-59
2020/12/03 10:32:16;;;;;;;13.73;1.38;;;8.10;99.90;;;;;;5109734;28;20020;-64
2020/12/03 10:34:47;;;;;;;7.45;1.15;;;8.10;99.90;;;;;;5105929;28;20024;-63
2020/12/03 10:37:33;;;;;;;12.48;1.63;;;8.10;99.90;;;;;;5090830;28;20464;-60
2020/12/03 10:40:14;;;;;;;11.93;1.35;;;8.20;99.90;;;;;;5099015;28;20655;-61
2020/12/03 10:42:46;;;;;;;9.55;1.58;;;8.10;99.90;;;;;;5109257;28;20019;-63
2020/12/03 10:45:21;;;;;;;5.25;1.20;;;8.20;99.90;;;;;;5109743;28;20035;-62
2020/12/03 10:47:48;;;;;;;11.05;1.40;;;8.20;99.90;;;;;;5109491;28;20515;-63
2020/12/03 10:50:17;;;;;;;14.00;1.75;;;8.20;99.90;;;;;;5102237;28;20040;-60
2020/12/03 10:52:44;;;;;;;12.85;1.10;;;8.20;99.90;;;;;;5095611;28;20038;-61
2020/12/03 10:55:15;;;;;;;8.68;1.42;;;8.30;99.90;;;;;;5109540;28;20097;-64
2020/12/03 10:57:46;;;;;;;16.80;2.38;;;8.20;99.90;;;;;;5109270;28;20020;-65
2020/12/03 11:00:12;;;;;;;13.98;1.75;;;8.30;99.90;;;;;;5108151;28;20046;-66
2020/12/03 11:02:47;;;;;;;10.65;1.55;;;8.30;99.90;;;;;;5109580;28;20035;-66
2020/12/03 11:05:13;;;;;;;19.08;2.58;;;8.30;99.90;;;;;;5104114;28;20485;-64
2020/12/03 11:07:40;;;;;;;33.05;3.45;;;8.30;99.90;;;;;;5095648;28;20038;-63
2020/12/03 11:10:06;;;;;;;27.80;3.35;;;8.30;99.90;;;;;;5109571;28;20105;-63
2020/12/03 11:12:38;;;;;;;34.13;3.72;;;8.30;99.90;;;;;;5109266;28;20220;-61
2020/12/03 11:15:05;;;;;;;28.05;2.97;;;8.40;99.90;;;;;;5109200;28;20489;-61
2020/12/03 11:17:30;;;;;;;34.05;4.28;;;8.50;99.90;;;;;;5109393;28;20047;-61
2020/12/03 11:19:59;;;;;;;24.77;3.83;;;8.50;99.90;;;;;;5105657;28;20075;-61
2020/12/03 11:22:40;;;;;;;27.92;3.40;;;8.40;99.90;;;;;;5093032;28;20081;-61
2020/12/03 11:25:17;;;;;;;33.10;3.35;;;8.40;99.90;;;;;;5109486;28;20047;-61
2020/12/03 11:27:43;;;;;;;36.40;4.30;;;8.50;99.90;;;;;;5109610;28;20062;-61
2020/12/03 11:30:19;;;;;;;26.75;2.53;;;8.50;99.90;;;;;;5109111;28;20473;-62
2020/12/03 11:32:50;;;;;;;31.63;3.55;;;8.50;99.90;;;;;;5114931;28;20076;-60
2020/12/03 11:35:30;;;;;;;22.00;3.05;;;8.50;99.90;;;;;;5122552;28;20084;-62
2020/12/03 11:38:02;;;;;;;17.73;2.63;;;8.50;99.90;;;;;;5096739;28;20059;-61
2020/12/03 11:40:38;;;;;;;23.23;3.10;;;8.50;99.90;;;;;;5109169;28;20043;-62
2020/12/03 11:43:32;;;;;;;20.85;2.53;;;8.50;99.90;;;;;;5107620;28;20023;-61
2020/12/03 11:48:52;;;;;;;27.27;3.50;;;8.50;99.90;;;;;;5110556;28;20042;-62
2020/12/03 11:51:37;;;;;;;25.30;3.08;;;8.60;99.90;;;;;;5101398;27;20363;-60
2020/12/03 11:54:09;;;;;;;19.10;3.17;;;8.60;99.90;;;;;;5109504;28;20079;-60
2020/12/03 11:56:37;;;;;;;34.05;3.35;;;8.60;99.90;;;;;;5111963;28;20032;-61
2020/12/03 11:59:12;;;;;;;28.80;3.58;;;8.60;99.90;;;;;;5111759;28;20042;-60
2020/12/03 12:01:38;;;;;;;30.45;3.90;;;8.60;99.90;;;;;;5111895;28;20190;-61
2020/12/03 12:04:05;;;;;;;16.30;2.00;;;8.60;99.90;;;;;;5111524;28;20024;-61
2020/12/03 12:06:40;;;;;;;26.17;3.50;;;8.50;99.90;;;;;;5100300;27;20024;-60
2020/12/03 12:09:13;;;;;;;32.75;3.60;;;8.50;99.90;;;;;;5109961;28;20073;-61
2020/12/03 12:11:44;;;;;;;42.30;4.05;;;8.60;99.90;;;;;;5112733;28;20035;-60
2020/12/03 12:14:10;;;;;;;29.40;3.35;;;8.60;99.90;;;;;;5112479;28;20036;-61
2020/12/03 12:16:35;;;;;;;21.80;4.88;;;8.60;99.90;;;;;;5112738;28;20042;-60
2020/12/03 12:19:02;;;;;;;30.42;3.75;;;8.60;99.90;;;;;;5112176;28;20089;-62
2020/12/03 12:21:30;;;;;;;14.65;2.28;;;8.60;99.90;;;;;;5102707;28;20123;-64
2020/12/03 12:23:56;;;;;;;21.30;3.78;;;8.50;99.90;;;;;;5106896;28;20084;-59
2020/12/03 12:26:21;;;;;;;19.73;3.05;;;8.50;99.90;;;;;;5112242;28;20059;-58
2020/12/03 12:28:47;;;;;;;27.08;3.63;;;8.40;99.90;;;;;;5110660;28;20032;-60
2020/12/03 12:31:15;;;;;;;19.98;2.80;;;8.50;99.90;;;;;;5112067;28;20024;-61
2020/12/03 12:33:41;;;;;;;16.15;2.67;;;8.40;99.90;;;;;;5110645;28;20028;-61
2020/12/03 12:36:07;;;;;;;23.73;2.20;;;8.50;99.90;;;;;;5104839;28;20051;-61
2020/12/03 12:38:32;;;;;;;34.78;3.03;;;8.50;99.90;;;;;;5105029;28;20061;-61
2020/12/03 12:40:58;;;;;;;22.33;3.35;;;8.50;99.90;;;;;;5110562;28;20044;-61
2020/12/03 12:43:24;;;;;;;21.95;2.70;;;8.40;99.90;;;;;;5111717;28;20678;-60
2020/12/03 12:45:49;;;;;;;38.08;3.85;;;8.40;99.90;;;;;;5100158;28;20032;-59
2020/12/03 12:48:15;;;;;;;17.33;2.92;;;8.40;99.90;;;;;;5102376;28;20462;-60
2020/12/03 12:50:41;;;;;;;16.00;2.35;;;8.40;99.90;;;;;;5110122;28;20146;-61
2020/12/03 12:53:07;;;;;;;37.85;3.78;;;8.40;99.90;;;;;;5099955;28;20764;-59
2020/12/03 12:55:33;;;;;;;29.95;3.63;;;8.40;99.90;;;;;;5111327;28;20056;-59
2020/12/03 12:58:00;;;;;;;33.70;3.92;;;8.50;99.90;;;;;;5110872;28;20057;-58
2020/12/03 13:00:26;;;;;;;29.67;4.22;;;8.50;99.90;;;;;;5110461;28;20043;-58
2020/12/03 13:02:51;;;;;;;20.05;2.25;;;8.50;99.90;;;;;;5110618;28;20047;-57
2020/12/03 13:05:18;;;;;;;17.15;2.50;;;8.50;99.90;;;;;;5111703;28;20058;-56
2020/12/03 13:07:43;;;;;;;16.00;3.08;;;8.50;99.90;;;;;;5100249;28;20134;-58
2020/12/03 13:10:09;;;;;;;16.30;2.63;;;8.50;99.90;;;;;;5111455;28;20497;-56
2020/12/03 13:12:34;;;;;;;30.98;3.40;;;8.50;99.90;;;;;;5111606;28;20112;-57
2020/12/03 13:15:00;;;;;;;32.20;3.00;;;8.60;99.90;;;;;;5111447;28;20466;-58